Rachal, Texas
Current Conditions -  °F | °C
As of 10:35 PM on Thursday 18 Dec 2014 (Local Time) from KBKS Reporting Station
Overcast Overcast  
Wind Chill: 20°   Ceiling: 2500
Heat Index: 20°   Visibility: 3mi
Dew Point: 20°   Wind: 0mph
Humidity: 95%   Direction: NA
Pressure: 29.98"   Gusts: NA
Location:  26.9826°N, 98.212°W
Report Text: KBKS 190435Z AUTO 00000KT 3SM SCT004 BKN025 OVC042 20/20 A2998 RMK AO1 T02040195
Loading
Personal Weather Stations






























Interactive Weather Map New forecast layout! Learn more

10-Day Weather Forecast

Advertisements
Track Severe Weather on mobile